Time;durP1;ratioP1;P1;durP2;ratioP2;P2;SDS_P1;SDS_P2;PMS_P1;PMS_P2;Temp;Humidity;BMP_temperature;BMP_pressure;BME280_temperature;BME280_humidity;BME280_pressure;Samples;Min_cycle;Max_cycle;Signal;HPM_P1;HPM_P2
2023/07/31 00:01:48;;;;;;;3.20;2.40;;;;;;;;;;4398665;32;68130;-58
2023/07/31 00:04:35;;;;;;;2.78;2.17;;;;;;;;;;4399990;32;66924;-56
2023/07/31 00:07:21;;;;;;;;;;;;;;;;;;4398927;32;70547;-56
2023/07/31 00:10:08;;;;;;;2.67;2.35;;;;;;;;;;4400367;32;66703;-56
2023/07/31 00:12:54;;;;;;;3.75;2.40;;;;;;;;;;4398688;32;67947;-57
2023/07/31 00:15:41;;;;;;;3.30;2.45;;;;;;;;;;4400360;32;60216;-57
2023/07/31 00:18:27;;;;;;;3.50;2.28;;;;;;;;;;4399679;32;69364;-56
2023/07/31 00:21:14;;;;;;;3.10;2.25;;;;;;;;;;4399732;32;68311;-57
2023/07/31 00:24:00;;;;;;;4.47;2.50;;;;;;;;;;4398791;32;67626;-56
2023/07/31 00:26:47;;;;;;;;;;;;;;;;;;4400004;32;60044;-57
2023/07/31 00:29:33;;;;;;;3.40;2.20;;;;;;;;;;4399831;32;70086;-56
2023/07/31 00:32:20;;;;;;;3.33;2.40;;;;;;;;;;4399652;32;68287;-57
2023/07/31 00:35:07;;;;;;;2.47;2.12;;;;;;;;;;4399637;32;67709;-56
2023/07/31 00:37:53;;;;;;;3.50;2.50;;;;;;;;;;4398194;32;71692;-57
2023/07/31 00:40:40;;;;;;;2.95;2.42;;;;;;;;;;4398421;32;66519;-56
2023/07/31 00:43:27;;;;;;;3.22;2.45;;;;;;;;;;4399894;32;67651;-56
2023/07/31 00:46:13;;;;;;;;;;;;;;;;;;4398615;32;68048;-56
2023/07/31 00:49:02;;;;;;;2.92;2.22;;;;;;;;;;4397795;32;72876;-57
2023/07/31 00:51:48;;;;;;;4.25;2.22;;;;;;;;;;4399630;32;65832;-56
2023/07/31 00:54:35;;;;;;;3.03;2.30;;;;;;;;;;4397816;32;68133;-56
2023/07/31 00:57:22;;;;;;;4.20;2.17;;;;;;;;;;4386842;32;61307;-56
2023/07/31 01:00:11;;;;;;;4.12;2.22;;;;;;;;;;4398003;32;70494;-57
2023/07/31 01:02:58;;;;;;;3.17;2.00;;;;;;;;;;4397962;32;69175;-56
2023/07/31 01:06:20;;;;;;;3.08;2.12;;;;;;;;;;4387558;32;68054;-57
2023/07/31 01:09:15;;;;;;;3.90;2.87;;;;;;;;;;4397705;32;73337;-56
2023/07/31 01:12:04;;;;;;;2.20;2.00;;;;;;;;;;4397478;32;72102;-57
2023/07/31 01:15:10;;;;;;;3.00;2.30;;;;;;;;;;4399265;32;69543;-56
2023/07/31 01:17:57;;;;;;;7.47;2.65;;;;;;;;;;4386903;32;68480;-56
2023/07/31 01:20:47;;;;;;;2.72;2.08;;;;;;;;;;4398986;32;70580;-56
2023/07/31 01:24:18;;;;;;;2.72;2.10;;;;;;;;;;4398285;32;66373;-57
2023/07/31 01:27:11;;;;;;;2.72;2.12;;;;;;;;;;4355335;32;67906;-57
2023/07/31 01:30:16;;;;;;;3.92;2.40;;;;;;;;;;4400154;32;60017;-57
2023/07/31 01:33:07;;;;;;;3.85;2.15;;;;;;;;;;4398999;32;70945;-57
2023/07/31 01:35:54;;;;;;;3.10;2.00;;;;;;;;;;4399158;32;69539;-57
2023/07/31 01:38:41;;;;;;;3.55;2.20;;;;;;;;;;4397597;32;67808;-57
2023/07/31 01:41:29;;;;;;;3.42;2.10;;;;;;;;;;4377491;32;59382;-56
2023/07/31 01:44:15;;;;;;;4.40;2.40;;;;;;;;;;4397904;32;69460;-57
2023/07/31 01:47:02;;;;;;;;;;;;;;;;;;4398631;32;69254;-56
2023/07/31 01:49:48;;;;;;;3.70;2.10;;;;;;;;;;4398642;32;67811;-56
2023/07/31 01:55:21;;;;;;;3.33;2.37;;;;;;;;;;3847599;37;43935;-57
2023/07/31 01:58:08;;;;;;;3.20;2.50;;;;;;;;;;4410108;32;60360;-55
2023/07/31 02:00:55;;;;;;;4.20;2.40;;;;;;;;;;4410908;32;70661;-56
2023/07/31 02:03:42;;;;;;;2.33;1.98;;;;;;;;;;4410504;32;69245;-57
2023/07/31 02:06:29;;;;;;;4.15;2.25;;;;;;;;;;4411181;32;68038;-56
2023/07/31 02:09:16;;;;;;;4.28;2.42;;;;;;;;;;4410829;32;70817;-57
2023/07/31 02:12:03;;;;;;;4.25;2.10;;;;;;;;;;4410885;32;65737;-56
2023/07/31 02:14:49;;;;;;;6.00;2.35;;;;;;;;;;4409614;32;65923;-56
2023/07/31 02:17:36;;;;;;;4.22;2.28;;;;;;;;;;4409779;32;60831;-56
2023/07/31 02:20:22;;;;;;;2.83;2.10;;;;;;;;;;4410647;32;70214;-57
2023/07/31 02:23:09;;;;;;;3.50;2.33;;;;;;;;;;4410989;32;66511;-56
2023/07/31 02:25:56;;;;;;;;;;;;;;;;;;4411113;32;67806;-56
2023/07/31 02:28:43;;;;;;;3.78;2.50;;;;;;;;;;4411032;32;58332;-57
2023/07/31 02:31:29;;;;;;;3.22;2.22;;;;;;;;;;4409174;32;70703;-56
2023/07/31 02:34:16;;;;;;;2.67;1.98;;;;;;;;;;4410427;32;68319;-56
2023/07/31 02:37:02;;;;;;;3.40;2.40;;;;;;;;;;4387288;32;68828;-56
2023/07/31 02:39:49;;;;;;;;;;;;;;;;;;4398699;32;70728;-57
2023/07/31 02:42:35;;;;;;;3.22;2.00;;;;;;;;;;4411042;32;66173;-56
2023/07/31 02:45:22;;;;;;;6.25;2.30;;;;;;;;;;4410320;32;68409;-56
2023/07/31 02:48:08;;;;;;;2.92;2.17;;;;;;;;;;4409144;32;67315;-56
2023/07/31 02:50:55;;;;;;;6.30;2.87;;;;;;;;;;4410272;32;71423;-56
2023/07/31 02:53:42;;;;;;;;;;;;;;;;;;4410316;32;65723;-56
2023/07/31 02:56:28;;;;;;;4.37;2.22;;;;;;;;;;4410653;32;67746;-57
2023/07/31 02:59:14;;;;;;;5.07;2.42;;;;;;;;;;4387729;32;60193;-57
2023/07/31 03:02:01;;;;;;;3.17;2.35;;;;;;;;;;4410059;32;70749;-56
2023/07/31 03:04:48;;;;;;;3.22;2.35;;;;;;;;;;4395122;32;70096;-57
2023/07/31 03:07:34;;;;;;;3.60;2.45;;;;;;;;;;4399935;32;67612;-56
2023/07/31 03:10:20;;;;;;;;;;;;;;;;;;4399156;32;60075;-56
2023/07/31 03:13:07;;;;;;;4.50;2.20;;;;;;;;;;4400116;32;69182;-57
2023/07/31 03:15:53;;;;;;;2.80;2.30;;;;;;;;;;4398125;32;70623;-56
2023/07/31 03:18:40;;;;;;;2.95;2.40;;;;;;;;;;4398469;32;66722;-57
2023/07/31 03:21:27;;;;;;;3.37;2.10;;;;;;;;;;4397921;32;72460;-56
2023/07/31 03:24:14;;;;;;;4.15;2.22;;;;;;;;;;4399790;32;65394;-57
2023/07/31 03:27:00;;;;;;;;;;;;;;;;;;4398748;32;67805;-56
2023/07/31 03:29:49;;;;;;;3.20;2.45;;;;;;;;;;4398468;32;59690;-56
2023/07/31 03:32:36;;;;;;;3.87;2.08;;;;;;;;;;4398131;32;70409;-56
2023/07/31 03:35:23;;;;;;;4.35;2.80;;;;;;;;;;4387175;32;66552;-56
2023/07/31 03:38:09;;;;;;;;;;;;;;;;;;4387555;32;67903;-56
2023/07/31 03:40:58;;;;;;;5.30;2.40;;;;;;;;;;4398195;32;59924;-57
2023/07/31 03:43:46;;;;;;;4.32;2.75;;;;;;;;;;4386646;32;72206;-57
2023/07/31 03:46:33;;;;;;;4.68;2.60;;;;;;;;;;4399617;32;69363;-55
2023/07/31 03:49:20;;;;;;;5.65;2.60;;;;;;;;;;4398176;32;67478;-56
2023/07/31 03:52:07;;;;;;;4.60;3.10;;;;;;;;;;4397903;32;71900;-57
2023/07/31 03:54:53;;;;;;;;;;;;;;;;;;4399455;32;65972;-56
2023/07/31 03:57:40;;;;;;;2.55;2.10;;;;;;;;;;4387306;32;67683;-57
2023/07/31 04:00:27;;;;;;;2.90;2.33;;;;;;;;;;4398076;32;67578;-55
2023/07/31 04:03:18;;;;;;;4.05;2.25;;;;;;;;;;4397475;32;72665;-56
2023/07/31 04:06:06;;;;;;;2.85;2.30;;;;;;;;;;4399410;32;65715;-56
2023/07/31 04:08:53;;;;;;;3.33;2.10;;;;;;;;;;4399461;32;67432;-56
2023/07/31 04:11:40;;;;;;;2.97;2.42;;;;;;;;;;4399712;32;59158;-56
2023/07/31 04:14:27;;;;;;;4.57;2.87;;;;;;;;;;4397205;32;72049;-57
2023/07/31 04:17:13;;;;;;;3.45;2.05;;;;;;;;;;4374838;32;68722;-56
2023/07/31 04:20:00;;;;;;;3.72;2.33;;;;;;;;;;4399241;32;67761;-56
2023/07/31 04:22:46;;;;;;;2.92;2.15;;;;;;;;;;4399381;32;58910;-57
2023/07/31 04:25:34;;;;;;;2.83;2.25;;;;;;;;;;4398983;32;69363;-56
2023/07/31 04:28:21;;;;;;;3.25;2.30;;;;;;;;;;4399096;32;69642;-56
2023/07/31 04:31:08;;;;;;;2.90;2.47;;;;;;;;;;4398837;32;66669;-56
2023/07/31 04:33:55;;;;;;;2.58;2.30;;;;;;;;;;4398700;32;71802;-56
2023/07/31 04:36:41;;;;;;;4.18;2.45;;;;;;;;;;4398983;32;64747;-56
2023/07/31 04:39:28;;;;;;;3.67;2.50;;;;;;;;;;4398863;32;66682;-56
2023/07/31 04:42:15;;;;;;;2.12;1.90;;;;;;;;;;4399212;32;60493;-56
2023/07/31 04:45:01;;;;;;;;;;;;;;;;;;4397828;32;70276;-56
2023/07/31 04:47:48;;;;;;;4.28;2.40;;;;;;;;;;4397797;32;64980;-57
2023/07/31 04:50:35;;;;;;;4.85;2.30;;;;;;;;;;4398779;32;67923;-56
2023/07/31 04:53:21;;;;;;;2.72;2.30;;;;;;;;;;4398661;32;59025;-56
2023/07/31 04:56:08;;;;;;;;;;;;;;;;;;4398955;32;69328;-56
2023/07/31 04:58:54;;;;;;;4.07;2.72;;;;;;;;;;4387003;32;69472;-57
2023/07/31 05:01:40;;;;;;;;;;;;;;;;;;4387070;32;67712;-56
2023/07/31 05:04:27;;;;;;;2.87;1.92;;;;;;;;;;4398689;32;70917;-56
2023/07/31 05:07:14;;;;;;;;;;;;;;;;;;4399027;32;64964;-56
2023/07/31 05:10:00;;;;;;;3.75;2.60;;;;;;;;;;4398874;32;68029;-56
2023/07/31 05:12:47;;;;;;;;;;;;;;;;;;4398850;32;67220;-57
2023/07/31 05:15:33;;;;;;;2.67;2.12;;;;;;;;;;4397194;32;71629;-56
2023/07/31 05:18:20;;;;;;;2.70;2.37;;;;;;;;;;4386142;32;67443;-56
2023/07/31 05:21:07;;;;;;;2.92;1.98;;;;;;;;;;4397128;32;67534;-56
2023/07/31 05:23:54;;;;;;;3.70;1.70;;;;;;;;;;4397340;32;59194;-56
2023/07/31 05:26:40;;;;;;;2.28;1.95;;;;;;;;;;4396620;32;71159;-56
2023/07/31 05:29:27;;;;;;;3.35;2.40;;;;;;;;;;4397904;32;68465;-56
2023/07/31 05:32:14;;;;;;;3.05;2.03;;;;;;;;;;4396732;32;67303;-57
2023/07/31 05:35:00;;;;;;;;;;;;;;;;;;4386018;32;71448;-56
2023/07/31 05:37:47;;;;;;;4.17;2.20;;;;;;;;;;4397008;32;69820;-56
2023/07/31 05:40:34;;;;;;;2.67;1.90;;;;;;;;;;4398349;32;68939;-57
2023/07/31 05:43:21;;;;;;;2.37;1.48;;;;;;;;;;4386318;32;67913;-56
2023/07/31 05:46:09;;;;;;;3.50;1.75;;;;;;;;;;4385437;32;72679;-56
2023/07/31 05:48:56;;;;;;;5.37;3.53;;;;;;;;;;4398150;32;65485;-56
2023/07/31 05:51:42;;;;;;;3.08;2.00;;;;;;;;;;4386087;32;67628;-57
2023/07/31 05:54:54;;;;;;;3.17;2.00;;;;;;;;;;4395902;32;61361;-56
2023/07/31 05:57:42;;;;;;;2.47;1.62;;;;;;;;;;4385791;32;69685;-57
2023/07/31 06:00:29;;;;;;;2.55;1.92;;;;;;;;;;4397647;32;68681;-57
2023/07/31 06:03:15;;;;;;;3.62;2.17;;;;;;;;;;4397771;32;66682;-57
2023/07/31 06:06:02;;;;;;;2.50;1.87;;;;;;;;;;4398144;32;59467;-57
2023/07/31 06:08:49;;;;;;;3.10;1.98;;;;;;;;;;4396020;32;71165;-56
2023/07/31 06:11:36;;;;;;;2.78;2.03;;;;;;;;;;4397740;32;68889;-57
2023/07/31 06:14:22;;;;;;;3.53;2.17;;;;;;;;;;4397754;32;66698;-57
2023/07/31 06:17:09;;;;;;;3.62;1.80;;;;;;;;;;4396297;32;71684;-57
2023/07/31 06:19:56;;;;;;;2.47;2.10;;;;;;;;;;4396462;32;65706;-56
2023/07/31 06:22:42;;;;;;;;;;;;;;;;;;4398131;32;66725;-57
2023/07/31 06:25:29;;;;;;;3.17;2.12;;;;;;;;;;4396364;32;60786;-57
2023/07/31 06:28:15;;;;;;;;;;;;;;;;;;4396606;32;71875;-56
2023/07/31 06:31:02;;;;;;;3.28;2.30;;;;;;;;;;4397959;32;65369;-56
2023/07/31 06:36:28;;;;;;;3.22;2.30;;;;;;;;;;3868540;36;43448;-57
2023/07/31 06:39:16;;;;;;;2.67;2.10;;;;;;;;;;4414507;32;60241;-56
2023/07/31 06:42:03;;;;;;;2.62;2.22;;;;;;;;;;4413918;32;70114;-56
2023/07/31 06:44:50;;;;;;;2.40;2.20;;;;;;;;;;4426117;32;68414;-58
2023/07/31 06:47:37;;;;;;;3.08;2.20;;;;;;;;;;4426265;32;66651;-56
2023/07/31 06:50:24;;;;;;;2.85;2.25;;;;;;;;;;4400623;32;72905;-57
2023/07/31 06:53:10;;;;;;;4.07;2.28;;;;;;;;;;4403349;32;65023;-58
2023/07/31 06:55:57;;;;;;;3.45;2.12;;;;;;;;;;4426279;32;66205;-57
2023/07/31 06:58:43;;;;;;;;;;;;;;;;;;4426824;32;59114;-56
2023/07/31 07:01:33;;;;;;;2.60;2.22;;;;;;;;;;4426004;32;71887;-56
2023/07/31 07:04:19;;;;;;;;;;;;;;;;;;4426536;32;65633;-56
2023/07/31 07:07:06;;;;;;;2.90;2.28;;;;;;;;;;4426206;32;67821;-56
2023/07/31 07:09:53;;;;;;;3.55;2.62;;;;;;;;;;4413931;32;59279;-57
2023/07/31 07:12:40;;;;;;;3.20;2.33;;;;;;;;;;4410787;32;71408;-57
2023/07/31 07:15:27;;;;;;;4.00;2.40;;;;;;;;;;4425833;32;69625;-56
2023/07/31 07:18:14;;;;;;;3.50;2.47;;;;;;;;;;4425539;32;67501;-56
2023/07/31 07:21:02;;;;;;;;;;;;;;;;;;4411050;32;71892;-56
2023/07/31 07:23:48;;;;;;;5.65;2.30;;;;;;;;;;4426292;32;66362;-57
2023/07/31 07:26:35;;;;;;;3.90;2.92;;;;;;;;;;4389361;32;69557;-56
2023/07/31 07:29:21;;;;;;;3.65;2.35;;;;;;;;;;4425686;32;67914;-56
2023/07/31 07:32:08;;;;;;;5.97;2.75;;;;;;;;;;4425361;32;71957;-56
2023/07/31 07:34:56;;;;;;;2.92;2.47;;;;;;;;;;4410337;32;67793;-56
2023/07/31 07:37:43;;;;;;;4.03;2.70;;;;;;;;;;4403027;32;67158;-57
2023/07/31 07:40:29;;;;;;;4.62;2.75;;;;;;;;;;4425908;32;60056;-56
2023/07/31 07:43:16;;;;;;;;;;;;;;;;;;4425974;32;70469;-56
2023/07/31 07:46:03;;;;;;;5.83;2.60;;;;;;;;;;4410818;32;69302;-57
2023/07/31 07:48:49;;;;;;;3.37;2.28;;;;;;;;;;4400651;32;67916;-57
2023/07/31 07:51:36;;;;;;;3.55;2.22;;;;;;;;;;4403243;32;60499;-57
2023/07/31 07:54:23;;;;;;;;;;;;;;;;;;4415456;32;70498;-56
2023/07/31 07:57:09;;;;;;;3.65;2.33;;;;;;;;;;4403290;32;68737;-57
2023/07/31 07:59:56;;;;;;;2.85;2.30;;;;;;;;;;4414790;32;66972;-58
2023/07/31 08:02:43;;;;;;;4.40;2.20;;;;;;;;;;4414922;32;72036;-56
2023/07/31 08:05:33;;;;;;;2.42;1.92;;;;;;;;;;4415067;32;65816;-57
2023/07/31 08:08:20;;;;;;;2.90;2.30;;;;;;;;;;4402669;32;66569;-57
2023/07/31 08:11:09;;;;;;;2.50;2.10;;;;;;;;;;4400158;32;60898;-57
2023/07/31 08:13:56;;;;;;;2.50;2.30;;;;;;;;;;4391674;32;70918;-56
2023/07/31 08:16:43;;;;;;;4.18;2.10;;;;;;;;;;4414564;32;65942;-56
2023/07/31 08:19:29;;;;;;;3.72;2.60;;;;;;;;;;4414678;32;66483;-56
2023/07/31 08:22:16;;;;;;;2.65;2.12;;;;;;;;;;4402775;32;59852;-56
2023/07/31 08:25:03;;;;;;;3.28;2.45;;;;;;;;;;4414729;32;70695;-57
2023/07/31 08:27:52;;;;;;;2.90;2.22;;;;;;;;;;4414788;32;69004;-56
2023/07/31 08:30:38;;;;;;;3.10;2.37;;;;;;;;;;4402570;32;67340;-56
2023/07/31 08:33:25;;;;;;;3.05;2.40;;;;;;;;;;4402169;32;71684;-57
2023/07/31 08:36:12;;;;;;;2.70;2.22;;;;;;;;;;4401978;32;65113;-56
2023/07/31 08:38:58;;;;;;;4.15;2.70;;;;;;;;;;4414668;32;67970;-56
2023/07/31 08:41:45;;;;;;;4.90;2.50;;;;;;;;;;4402313;32;67925;-57
2023/07/31 08:44:32;;;;;;;2.83;2.28;;;;;;;;;;4388816;32;71465;-57
2023/07/31 08:47:21;;;;;;;3.15;2.60;;;;;;;;;;4402392;32;66123;-56
2023/07/31 08:50:08;;;;;;;3.33;2.65;;;;;;;;;;4388899;32;68051;-56
2023/07/31 08:52:54;;;;;;;2.87;2.35;;;;;;;;;;4391699;32;59606;-57
2023/07/31 08:55:41;;;;;;;5.35;2.90;;;;;;;;;;4399249;32;71123;-57
2023/07/31 08:58:33;;;;;;;3.65;2.50;;;;;;;;;;4401358;32;69195;-57
2023/07/31 09:01:20;;;;;;;3.83;1.85;;;;;;;;;;4388491;32;68751;-56
2023/07/31 09:04:06;;;;;;;4.30;2.62;;;;;;;;;;4391667;32;59882;-57
2023/07/31 09:06:57;;;;;;;3.10;2.50;;;;;;;;;;4399205;32;71305;-56
2023/07/31 09:09:45;;;;;;;4.55;2.30;;;;;;;;;;4402063;32;69398;-56
2023/07/31 09:12:32;;;;;;;3.72;2.50;;;;;;;;;;4391120;32;67163;-57
2023/07/31 09:15:19;;;;;;;5.00;2.42;;;;;;;;;;4401807;32;71979;-57
2023/07/31 09:18:07;;;;;;;4.47;2.45;;;;;;;;;;4402040;32;65984;-56
2023/07/31 09:21:03;;;;;;;4.05;2.35;;;;;;;;;;4401847;32;66885;-57
2023/07/31 09:23:54;;;;;;;;;;;;;;;;;;4388896;32;61405;-57
2023/07/31 09:26:40;;;;;;;5.65;2.97;;;;;;;;;;4413927;32;70086;-56
2023/07/31 09:29:28;;;;;;;3.10;2.65;;;;;;;;;;4401782;32;65125;-56
2023/07/31 09:32:18;;;;;;;3.97;2.80;;;;;;;;;;4401534;32;67848;-57
2023/07/31 09:35:29;;;;;;;3.12;2.70;;;;;;;;;;4401607;32;58805;-56
2023/07/31 09:38:16;;;;;;;4.80;3.20;;;;;;;;;;4413842;32;70411;-57
2023/07/31 09:41:03;;;;;;;3.60;2.90;;;;;;;;;;4413501;32;68658;-57
2023/07/31 09:43:55;;;;;;;;;;;;;;;;;;4402019;32;66382;-57
2023/07/31 09:47:01;;;;;;;5.00;3.10;;;;;;;;;;3686470;38;43954;-56
2023/07/31 09:49:48;;;;;;;3.80;2.70;;;;;;;;;;4290271;32;60227;-56
2023/07/31 09:52:35;;;;;;;4.68;2.97;;;;;;;;;;4303071;33;70170;-56
2023/07/31 09:55:22;;;;;;;4.68;2.85;;;;;;;;;;4291740;33;69654;-56
2023/07/31 09:58:10;;;;;;;4.10;2.92;;;;;;;;;;4291694;33;67662;-56
2023/07/31 10:01:01;;;;;;;3.60;2.80;;;;;;;;;;4289042;33;71980;-56
2023/07/31 10:03:48;;;;;;;4.10;2.70;;;;;;;;;;4289184;33;67293;-56
2023/07/31 10:06:36;;;;;;;4.55;3.00;;;;;;;;;;4291669;33;67118;-56
2023/07/31 10:09:29;;;;;;;3.80;2.97;;;;;;;;;;4291908;33;59422;-56
2023/07/31 10:12:16;;;;;;;4.50;2.90;;;;;;;;;;4291545;33;71587;-56
2023/07/31 10:15:04;;;;;;;4.53;2.85;;;;;;;;;;4291532;33;64901;-55
2023/07/31 10:17:51;;;;;;;3.87;2.90;;;;;;;;;;4278939;33;67892;-56
2023/07/31 10:20:38;;;;;;;3.85;2.60;;;;;;;;;;4279176;33;59971;-55
2023/07/31 10:23:25;;;;;;;4.05;2.90;;;;;;;;;;4302842;33;70420;-57
2023/07/31 10:26:16;;;;;;;4.68;3.08;;;;;;;;;;4302820;33;68151;-57
2023/07/31 10:29:04;;;;;;;3.97;2.47;;;;;;;;;;4269801;32;67991;-56
2023/07/31 10:31:51;;;;;;;3.60;2.50;;;;;;;;;;4276561;33;71254;-56
2023/07/31 10:34:40;;;;;;;6.05;2.90;;;;;;;;;;4287199;33;66116;-56
2023/07/31 10:37:37;;;;;;;6.07;2.60;;;;;;;;;;4287051;33;68702;-56
2023/07/31 10:40:26;;;;;;;5.18;2.95;;;;;;;;;;4288238;33;67485;-56
2023/07/31 10:43:28;;;;;;;7.75;3.10;;;;;;;;;;4286930;33;71413;-56
2023/07/31 10:46:15;;;;;;;5.45;3.12;;;;;;;;;;4286517;33;66122;-56
2023/07/31 10:49:03;;;;;;;6.45;3.03;;;;;;;;;;4277150;33;66804;-55
2023/07/31 10:51:50;;;;;;;5.97;2.70;;;;;;;;;;4288299;33;59075;-56
2023/07/31 10:54:37;;;;;;;3.72;2.28;;;;;;;;;;4286806;33;70861;-56
2023/07/31 10:57:25;;;;;;;5.78;2.85;;;;;;;;;;4260631;33;69322;-57
2023/07/31 11:00:30;;;;;;;3.95;3.00;;;;;;;;;;4277153;33;67052;-56
2023/07/31 11:03:18;;;;;;;4.95;2.90;;;;;;;;;;4256964;33;60146;-57
2023/07/31 11:06:07;;;;;;;5.18;2.85;;;;;;;;;;4278219;33;70522;-56
2023/07/31 11:08:53;;;;;;;3.55;2.45;;;;;;;;;;4266893;33;68414;-56
2023/07/31 11:11:40;;;;;;;;;;;;;;;;;;4278344;33;68281;-56
2023/07/31 11:14:26;;;;;;;5.22;2.55;;;;;;;;;;4277033;33;70856;-56
2023/07/31 11:17:13;;;;;;;4.05;2.80;;;;;;;;;;4278185;33;66669;-56
2023/07/31 11:20:00;;;;;;;;;;;;;;;;;;4266706;33;68045;-56
2023/07/31 11:22:47;;;;;;;4.80;2.70;;;;;;;;;;4267263;33;58805;-56
2023/07/31 11:25:34;;;;;;;5.30;2.53;;;;;;;;;;4276606;33;70866;-55
2023/07/31 11:28:21;;;;;;;5.28;2.60;;;;;;;;;;4276348;33;65320;-56
2023/07/31 11:31:10;;;;;;;3.92;2.80;;;;;;;;;;4276706;33;67673;-56
2023/07/31 11:34:07;;;;;;;4.07;2.70;;;;;;;;;;4256927;33;60152;-56
2023/07/31 11:36:58;;;;;;;4.25;2.95;;;;;;;;;;4276824;33;69942;-56
2023/07/31 11:39:59;;;;;;;7.20;2.90;;;;;;;;;;4276232;33;70398;-56
2023/07/31 11:42:46;;;;;;;3.45;2.80;;;;;;;;;;4276562;33;67643;-57
2023/07/31 11:45:35;;;;;;;4.53;2.70;;;;;;;;;;4283436;33;71797;-56
2023/07/31 11:48:27;;;;;;;3.78;2.60;;;;;;;;;;4292551;33;65131;-56
2023/07/31 11:51:14;;;;;;;5.43;3.22;;;;;;;;;;4281388;33;67559;-56
2023/07/31 11:54:02;;;;;;;6.15;3.22;;;;;;;;;;4281074;33;67746;-56
2023/07/31 11:56:49;;;;;;;3.90;2.78;;;;;;;;;;4292178;33;70886;-56
2023/07/31 11:59:35;;;;;;;3.85;2.85;;;;;;;;;;4280548;33;65157;-57
2023/07/31 12:02:23;;;;;;;4.12;2.70;;;;;;;;;;4280837;33;67412;-56
2023/07/31 12:05:15;;;;;;;3.60;2.70;;;;;;;;;;4292357;33;59284;-56
2023/07/31 12:08:10;;;;;;;3.67;2.58;;;;;;;;;;4291727;33;69630;-56
2023/07/31 12:11:09;;;;;;;5.50;2.97;;;;;;;;;;4280621;33;69450;-56
2023/07/31 12:13:55;;;;;;;4.53;2.78;;;;;;;;;;4292027;33;66791;-57
2023/07/31 12:16:42;;;;;;;5.50;3.30;;;;;;;;;;4292357;33;59227;-56
2023/07/31 12:19:29;;;;;;;;;;;;;;;;;;4292454;33;70797;-56
2023/07/31 12:22:16;;;;;;;7.62;2.80;;;;;;;;;;4270743;33;69634;-56
2023/07/31 12:25:03;;;;;;;6.12;3.20;;;;;;;;;;4292083;33;67317;-56
2023/07/31 12:27:51;;;;;;;4.50;3.15;;;;;;;;;;4270571;33;71949;-56
2023/07/31 12:30:39;;;;;;;5.00;3.10;;;;;;;;;;4280520;33;66417;-56
2023/07/31 12:33:32;;;;;;;3.78;3.10;;;;;;;;;;4280570;33;68082;-57
2023/07/31 12:36:23;;;;;;;6.10;3.17;;;;;;;;;;4292200;33;59781;-57
2023/07/31 12:39:10;;;;;;;5.47;2.90;;;;;;;;;;4270197;33;70294;-57
2023/07/31 12:41:56;;;;;;;4.90;2.65;;;;;;;;;;4292242;33;66224;-56
2023/07/31 12:44:43;;;;;;;3.25;2.92;;;;;;;;;;4291552;33;67488;-56
2023/07/31 12:47:30;;;;;;;4.65;2.90;;;;;;;;;;4267843;33;61253;-56
2023/07/31 12:50:16;;;;;;;4.90;2.58;;;;;;;;;;4291897;33;70667;-55
2023/07/31 12:53:06;;;;;;;;;;;;;;;;;;4292308;33;69284;-57
2023/07/31 12:55:52;;;;;;;5.70;3.00;;;;;;;;;;4291830;33;67766;-56
2023/07/31 12:58:38;;;;;;;;;;;;;;;;;;4291998;33;72290;-57
2023/07/31 13:01:25;;;;;;;4.72;2.80;;;;;;;;;;4280388;33;65587;-56
2023/07/31 13:04:11;;;;;;;5.05;3.00;;;;;;;;;;4280414;33;66943;-56
2023/07/31 13:06:58;;;;;;;4.43;2.83;;;;;;;;;;4280080;33;68009;-56
2023/07/31 13:09:44;;;;;;;4.07;2.78;;;;;;;;;;4280144;33;71684;-56
2023/07/31 13:12:31;;;;;;;4.47;2.72;;;;;;;;;;4276699;33;64730;-57
2023/07/31 13:15:17;;;;;;;4.12;2.97;;;;;;;;;;4291675;33;66499;-56
2023/07/31 13:18:05;;;;;;;2.85;2.30;;;;;;;;;;4291723;33;60109;-56
2023/07/31 13:20:51;;;;;;;5.03;2.90;;;;;;;;;;4279556;33;69648;-56
2023/07/31 13:23:38;;;;;;;4.50;2.75;;;;;;;;;;4277310;33;70905;-56
2023/07/31 13:26:24;;;;;;;4.68;2.67;;;;;;;;;;4279995;33;67885;-56
2023/07/31 13:29:11;;;;;;;5.07;3.20;;;;;;;;;;4291918;33;71671;-56
2023/07/31 13:31:57;;;;;;;;;;;;;;;;;;4291809;33;70697;-56
2023/07/31 13:34:44;;;;;;;4.80;2.67;;;;;;;;;;4291758;33;69332;-56
2023/07/31 13:37:30;;;;;;;6.47;3.03;;;;;;;;;;4279812;33;67618;-57
2023/07/31 13:40:19;;;;;;;4.45;2.90;;;;;;;;;;4269539;33;71156;-56
2023/07/31 13:43:06;;;;;;;5.03;2.95;;;;;;;;;;4279889;33;66056;-56
2023/07/31 13:45:52;;;;;;;4.30;3.05;;;;;;;;;;4279778;33;66640;-56
2023/07/31 13:48:38;;;;;;;4.40;2.92;;;;;;;;;;4280125;33;58997;-56
2023/07/31 13:51:27;;;;;;;4.32;2.50;;;;;;;;;;4269582;33;70705;-56
2023/07/31 13:54:15;;;;;;;5.05;2.95;;;;;;;;;;4291338;33;69486;-57
2023/07/31 13:57:02;;;;;;;4.05;3.20;;;;;;;;;;4291290;33;67427;-56
2023/07/31 13:59:48;;;;;;;4.68;3.17;;;;;;;;;;4291225;33;60102;-55
2023/07/31 14:02:36;;;;;;;3.92;2.55;;;;;;;;;;4276777;33;71680;-56
2023/07/31 14:05:23;;;;;;;3.87;2.85;;;;;;;;;;4279741;33;69390;-56
2023/07/31 14:08:09;;;;;;;;;;;;;;;;;;4291468;33;67788;-56
2023/07/31 14:10:56;;;;;;;5.93;3.03;;;;;;;;;;4279632;33;72109;-56
2023/07/31 14:13:43;;;;;;;4.85;2.95;;;;;;;;;;4291053;33;64964;-56
2023/07/31 14:16:30;;;;;;;5.28;3.20;;;;;;;;;;4290983;33;66742;-56
2023/07/31 14:19:16;;;;;;;5.90;2.70;;;;;;;;;;4291465;33;59285;-56
2023/07/31 14:22:03;;;;;;;4.53;3.25;;;;;;;;;;4279316;33;71927;-56
2023/07/31 14:24:50;;;;;;;4.90;3.33;;;;;;;;;;4290982;33;66071;-57
2023/07/31 14:27:37;;;;;;;4.43;3.10;;;;;;;;;;4279152;33;66931;-56
2023/07/31 14:30:23;;;;;;;4.65;3.28;;;;;;;;;;4291094;33;59045;-56
2023/07/31 14:33:10;;;;;;;6.22;3.20;;;;;;;;;;4292274;33;70635;-55
2023/07/31 14:36:20;;;;;;;5.53;3.22;;;;;;;;;;4278783;33;69362;-56
2023/07/31 14:39:07;;;;;;;5.50;3.15;;;;;;;;;;4281655;33;66775;-56
2023/07/31 14:41:54;;;;;;;5.95;3.35;;;;;;;;;;4268926;33;72715;-56
2023/07/31 14:44:41;;;;;;;4.72;3.03;;;;;;;;;;4268142;33;71444;-57
2023/07/31 14:47:27;;;;;;;4.55;3.10;;;;;;;;;;4271080;33;68748;-56
2023/07/31 14:50:14;;;;;;;4.45;3.08;;;;;;;;;;4292765;33;66750;-57
2023/07/31 14:53:00;;;;;;;;;;;;;;;;;;4268971;33;72093;-56
2023/07/31 14:55:47;;;;;;;7.65;3.22;;;;;;;;;;4293081;33;65732;-56
2023/07/31 14:58:34;;;;;;;;;;;;;;;;;;4293203;33;68146;-57
2023/07/31 15:01:20;;;;;;;8.57;3.42;;;;;;;;;;4281913;33;59967;-56
2023/07/31 15:04:07;;;;;;;5.07;3.53;;;;;;;;;;4268507;33;70013;-57
2023/07/31 15:06:55;;;;;;;4.18;2.67;;;;;;;;;;4271077;33;69337;-56
2023/07/31 15:09:41;;;;;;;5.65;3.97;;;;;;;;;;4281367;33;67142;-56
2023/07/31 15:12:28;;;;;;;7.32;3.33;;;;;;;;;;4292959;33;59336;-56
2023/07/31 15:15:15;;;;;;;5.18;3.33;;;;;;;;;;4281130;33;70801;-57
2023/07/31 15:18:03;;;;;;;6.18;3.03;;;;;;;;;;4281501;33;69357;-56
2023/07/31 15:20:49;;;;;;;6.28;3.40;;;;;;;;;;4292857;33;67479;-56
2023/07/31 15:23:38;;;;;;;4.18;3.05;;;;;;;;;;4292563;33;70372;-56
2023/07/31 15:26:24;;;;;;;4.22;3.30;;;;;;;;;;4281321;33;65787;-56
2023/07/31 15:29:15;;;;;;;4.90;3.15;;;;;;;;;;4268535;33;67557;-56
2023/07/31 15:32:01;;;;;;;5.00;3.20;;;;;;;;;;4268454;33;60404;-56
2023/07/31 15:34:48;;;;;;;7.47;3.50;;;;;;;;;;4292580;33;72021;-56
2023/07/31 15:37:34;;;;;;;4.97;3.20;;;;;;;;;;4281204;33;65990;-56
2023/07/31 15:40:24;;;;;;;5.03;3.33;;;;;;;;;;4292544;33;67240;-56
2023/07/31 15:43:10;;;;;;;3.70;3.00;;;;;;;;;;4292678;33;59257;-56
2023/07/31 15:45:59;;;;;;;4.97;3.30;;;;;;;;;;4270493;33;70760;-57
2023/07/31 15:48:46;;;;;;;5.43;3.28;;;;;;;;;;4280760;33;68903;-56
2023/07/31 15:51:33;;;;;;;8.55;3.90;;;;;;;;;;4278146;33;68803;-56
2023/07/31 15:54:20;;;;;;;7.03;4.07;;;;;;;;;;4268079;33;72244;-57
2023/07/31 15:57:07;;;;;;;6.43;3.65;;;;;;;;;;4270930;33;64440;-56
2023/07/31 15:59:53;;;;;;;7.30;3.97;;;;;;;;;;4292179;33;69139;-56
2023/07/31 16:02:41;;;;;;;8.95;4.30;;;;;;;;;;4280678;33;66834;-55
2023/07/31 16:05:27;;;;;;;6.05;3.90;;;;;;;;;;4280807;33;71684;-56
2023/07/31 16:08:14;;;;;;;8.95;4.43;;;;;;;;;;4267882;33;66637;-56
2023/07/31 16:11:01;;;;;;;8.40;4.50;;;;;;;;;;4278093;33;68862;-56
2023/07/31 16:13:47;;;;;;;9.70;4.72;;;;;;;;;;4269535;32;58397;-57
2023/07/31 16:16:34;;;;;;;;;;;;;;;;;;4270802;33;69602;-56
2023/07/31 16:19:20;;;;;;;8.25;4.65;;;;;;;;;;4278383;33;69842;-56
2023/07/31 16:22:07;;;;;;;12.50;4.70;;;;;;;;;;4270795;33;67247;-56
2023/07/31 16:24:54;;;;;;;7.70;4.50;;;;;;;;;;4278187;33;61872;-56
2023/07/31 16:27:40;;;;;;;9.23;4.78;;;;;;;;;;4292018;33;70642;-56
2023/07/31 16:30:27;;;;;;;7.40;4.72;;;;;;;;;;4280513;33;69500;-56
2023/07/31 16:33:15;;;;;;;7.40;4.37;;;;;;;;;;4291913;33;67878;-56
2023/07/31 16:36:01;;;;;;;7.05;4.18;;;;;;;;;;4267840;32;72649;-56
2023/07/31 16:38:49;;;;;;;8.07;4.43;;;;;;;;;;4277947;33;67048;-56
2023/07/31 16:41:35;;;;;;;5.72;4.03;;;;;;;;;;4278049;33;66176;-56
2023/07/31 16:44:22;;;;;;;6.97;4.18;;;;;;;;;;4268020;33;60888;-56
2023/07/31 16:47:09;;;;;;;8.77;3.80;;;;;;;;;;4291773;33;69537;-57
2023/07/31 16:49:55;;;;;;;5.97;4.07;;;;;;;;;;4280497;33;64600;-56
2023/07/31 16:52:42;;;;;;;8.00;3.85;;;;;;;;;;4277864;33;68939;-56
2023/07/31 16:55:28;;;;;;;8.40;3.83;;;;;;;;;;4291497;33;60100;-56
2023/07/31 16:58:15;;;;;;;8.82;3.90;;;;;;;;;;4277622;33;70821;-56
2023/07/31 17:01:05;;;;;;;6.32;4.12;;;;;;;;;;4280391;33;69552;-57
2023/07/31 17:03:51;;;;;;;8.38;4.07;;;;;;;;;;4291847;33;67884;-57